sensor_id;sensor_type;location;lat;lon;timestamp;P1;durP1;ratioP1;P2;durP2;ratioP2
75542;SDS011;64129;53.508;10.476;2024-03-02T00:02:23;34.55;;;18.52;;
75542;SDS011;64129;53.508;10.476;2024-03-02T00:04:59;37.33;;;18.58;;
75542;SDS011;64129;53.508;10.476;2024-03-02T00:07:30;37.35;;;19.85;;
75542;SDS011;64129;53.508;10.476;2024-03-02T00:10:01;32.65;;;18.40;;
75542;SDS011;64129;53.508;10.476;2024-03-02T00:12:55;33.85;;;18.70;;
75542;SDS011;64129;53.508;10.476;2024-03-02T00:18:30;34.15;;;17.63;;
75542;SDS011;64129;53.508;10.476;2024-03-02T00:21:06;32.95;;;16.83;;
75542;SDS011;64129;53.508;10.476;2024-03-02T00:23:45;40.53;;;19.38;;
75542;SDS011;64129;53.508;10.476;2024-03-02T00:26:26;36.13;;;17.02;;
75542;SDS011;64129;53.508;10.476;2024-03-02T00:28:55;35.45;;;18.83;;
75542;SDS011;64129;53.508;10.476;2024-03-02T00:31:37;35.90;;;18.60;;
75542;SDS011;64129;53.508;10.476;2024-03-02T00:34:12;35.70;;;19.08;;
75542;SDS011;64129;53.508;10.476;2024-03-02T00:36:46;36.95;;;18.70;;
75542;SDS011;64129;53.508;10.476;2024-03-02T00:39:18;39.10;;;20.80;;
75542;SDS011;64129;53.508;10.476;2024-03-02T00:41:52;37.08;;;18.05;;
75542;SDS011;64129;53.508;10.476;2024-03-02T00:44:30;36.70;;;20.70;;
75542;SDS011;64129;53.508;10.476;2024-03-02T00:47:08;34.42;;;18.33;;
75542;SDS011;64129;53.508;10.476;2024-03-02T00:49:39;38.55;;;20.25;;
75542;SDS011;64129;53.508;10.476;2024-03-02T00:52:13;35.95;;;19.27;;
75542;SDS011;64129;53.508;10.476;2024-03-02T00:54:40;35.47;;;19.55;;
75542;SDS011;64129;53.508;10.476;2024-03-02T00:57:13;33.30;;;17.70;;
75542;SDS011;64129;53.508;10.476;2024-03-02T00:59:41;34.00;;;19.08;;
75542;SDS011;64129;53.508;10.476;2024-03-02T01:02:16;35.45;;;18.58;;
75542;SDS011;64129;53.508;10.476;2024-03-02T01:04:55;35.40;;;18.27;;
75542;SDS011;64129;53.508;10.476;2024-03-02T01:07:26;37.92;;;19.77;;
75542;SDS011;64129;53.508;10.476;2024-03-02T01:09:53;36.38;;;19.40;;
75542;SDS011;64129;53.508;10.476;2024-03-02T01:12:27;34.63;;;18.17;;
75542;SDS011;64129;53.508;10.476;2024-03-02T01:15:00;34.70;;;18.88;;
75542;SDS011;64129;53.508;10.476;2024-03-02T01:17:29;36.30;;;19.25;;
75542;SDS011;64129;53.508;10.476;2024-03-02T01:20:00;35.80;;;19.95;;
75542;SDS011;64129;53.508;10.476;2024-03-02T01:22:32;34.85;;;19.48;;
75542;SDS011;64129;53.508;10.476;2024-03-02T01:24:59;39.53;;;19.98;;
75542;SDS011;64129;53.508;10.476;2024-03-02T01:27:26;38.80;;;20.10;;
75542;SDS011;64129;53.508;10.476;2024-03-02T01:29:56;35.70;;;19.25;;
75542;SDS011;64129;53.508;10.476;2024-03-02T01:32:27;37.83;;;19.73;;
75542;SDS011;64129;53.508;10.476;2024-03-02T01:34:57;42.35;;;19.17;;
75542;SDS011;64129;53.508;10.476;2024-03-02T01:37:26;39.70;;;20.40;;
75542;SDS011;64129;53.508;10.476;2024-03-02T01:40:01;40.45;;;19.25;;
75542;SDS011;64129;53.508;10.476;2024-03-02T01:42:33;35.92;;;20.05;;
75542;SDS011;64129;53.508;10.476;2024-03-02T01:45:05;34.92;;;18.58;;
75542;SDS011;64129;53.508;10.476;2024-03-02T01:47:39;33.67;;;19.27;;
75542;SDS011;64129;53.508;10.476;2024-03-02T01:50:07;40.72;;;18.67;;
75542;SDS011;64129;53.508;10.476;2024-03-02T01:52:39;41.10;;;20.60;;
75542;SDS011;64129;53.508;10.476;2024-03-02T01:55:16;39.38;;;20.27;;
75542;SDS011;64129;53.508;10.476;2024-03-02T01:57:49;38.20;;;19.17;;
75542;SDS011;64129;53.508;10.476;2024-03-02T02:00:25;40.42;;;20.83;;
75542;SDS011;64129;53.508;10.476;2024-03-02T02:03:03;37.25;;;20.10;;
75542;SDS011;64129;53.508;10.476;2024-03-02T02:05:32;37.15;;;20.10;;
75542;SDS011;64129;53.508;10.476;2024-03-02T02:08:15;33.85;;;19.13;;
75542;SDS011;64129;53.508;10.476;2024-03-02T02:10:45;36.65;;;19.73;;
75542;SDS011;64129;53.508;10.476;2024-03-02T02:13:16;37.72;;;19.75;;
75542;SDS011;64129;53.508;10.476;2024-03-02T02:15:46;40.50;;;21.08;;
75542;SDS011;64129;53.508;10.476;2024-03-02T02:18:25;38.50;;;20.83;;
75542;SDS011;64129;53.508;10.476;2024-03-02T02:20:59;37.78;;;18.88;;
75542;SDS011;64129;53.508;10.476;2024-03-02T02:23:30;38.42;;;21.45;;
75542;SDS011;64129;53.508;10.476;2024-03-02T02:26:00;39.92;;;19.80;;
75542;SDS011;64129;53.508;10.476;2024-03-02T02:28:31;36.03;;;19.90;;
75542;SDS011;64129;53.508;10.476;2024-03-02T02:31:03;38.95;;;20.17;;
75542;SDS011;64129;53.508;10.476;2024-03-02T02:33:50;34.35;;;19.25;;
75542;SDS011;64129;53.508;10.476;2024-03-02T02:36:21;36.55;;;19.95;;
75542;SDS011;64129;53.508;10.476;2024-03-02T02:39:02;36.65;;;17.85;;
75542;SDS011;64129;53.508;10.476;2024-03-02T02:41:38;34.65;;;19.45;;
75542;SDS011;64129;53.508;10.476;2024-03-02T02:44:15;41.53;;;19.27;;
75542;SDS011;64129;53.508;10.476;2024-03-02T02:46:46;35.65;;;19.00;;
75542;SDS011;64129;53.508;10.476;2024-03-02T02:49:21;36.05;;;20.88;;
75542;SDS011;64129;53.508;10.476;2024-03-02T02:51:51;35.47;;;20.67;;
75542;SDS011;64129;53.508;10.476;2024-03-02T02:54:24;38.92;;;20.65;;
75542;SDS011;64129;53.508;10.476;2024-03-02T02:56:51;38.20;;;19.55;;
75542;SDS011;64129;53.508;10.476;2024-03-02T02:59:26;36.30;;;19.08;;
75542;SDS011;64129;53.508;10.476;2024-03-02T03:01:53;37.17;;;18.80;;
75542;SDS011;64129;53.508;10.476;2024-03-02T03:04:25;37.92;;;19.40;;
75542;SDS011;64129;53.508;10.476;2024-03-02T03:06:52;37.03;;;19.98;;
75542;SDS011;64129;53.508;10.476;2024-03-02T03:09:23;38.70;;;18.00;;
75542;SDS011;64129;53.508;10.476;2024-03-02T03:11:50;34.03;;;19.15;;
75542;SDS011;64129;53.508;10.476;2024-03-02T03:14:28;36.90;;;19.63;;
75542;SDS011;64129;53.508;10.476;2024-03-02T03:16:58;39.33;;;19.92;;
75542;SDS011;64129;53.508;10.476;2024-03-02T03:19:33;38.75;;;20.25;;
75542;SDS011;64129;53.508;10.476;2024-03-02T03:22:09;33.92;;;18.90;;
75542;SDS011;64129;53.508;10.476;2024-03-02T03:24:39;40.33;;;20.98;;
75542;SDS011;64129;53.508;10.476;2024-03-02T03:27:14;37.95;;;19.77;;
75542;SDS011;64129;53.508;10.476;2024-03-02T03:29:48;38.10;;;20.27;;
75542;SDS011;64129;53.508;10.476;2024-03-02T03:32:19;38.13;;;19.77;;
75542;SDS011;64129;53.508;10.476;2024-03-02T03:34:46;36.70;;;18.48;;
75542;SDS011;64129;53.508;10.476;2024-03-02T03:37:17;35.63;;;20.42;;
75542;SDS011;64129;53.508;10.476;2024-03-02T03:39:52;35.30;;;19.70;;
75542;SDS011;64129;53.508;10.476;2024-03-02T03:42:20;36.60;;;18.92;;
75542;SDS011;64129;53.508;10.476;2024-03-02T03:44:50;35.95;;;18.83;;
75542;SDS011;64129;53.508;10.476;2024-03-02T03:47:20;36.42;;;20.48;;
75542;SDS011;64129;53.508;10.476;2024-03-02T03:49:49;38.67;;;18.65;;
75542;SDS011;64129;53.508;10.476;2024-03-02T03:52:24;37.60;;;20.05;;
75542;SDS011;64129;53.508;10.476;2024-03-02T03:54:55;39.92;;;20.20;;
75542;SDS011;64129;53.508;10.476;2024-03-02T03:57:28;39.90;;;21.30;;
75542;SDS011;64129;53.508;10.476;2024-03-02T03:59:58;38.35;;;19.73;;
75542;SDS011;64129;53.508;10.476;2024-03-02T04:02:43;37.63;;;19.52;;
75542;SDS011;64129;53.508;10.476;2024-03-02T04:05:13;37.63;;;20.15;;
75542;SDS011;64129;53.508;10.476;2024-03-02T04:07:43;39.60;;;19.70;;
75542;SDS011;64129;53.508;10.476;2024-03-02T04:10:16;34.97;;;17.52;;
75542;SDS011;64129;53.508;10.476;2024-03-02T04:12:51;35.45;;;19.30;;
75542;SDS011;64129;53.508;10.476;2024-03-02T04:15:22;36.75;;;19.95;;
75542;SDS011;64129;53.508;10.476;2024-03-02T04:17:54;38.20;;;21.08;;
75542;SDS011;64129;53.508;10.476;2024-03-02T04:20:28;41.00;;;19.50;;
75542;SDS011;64129;53.508;10.476;2024-03-02T04:23:06;38.75;;;21.48;;
75542;SDS011;64129;53.508;10.476;2024-03-02T04:25:38;38.00;;;19.80;;
75542;SDS011;64129;53.508;10.476;2024-03-02T04:28:05;39.25;;;22.08;;
75542;SDS011;64129;53.508;10.476;2024-03-02T04:30:32;39.72;;;21.63;;
75542;SDS011;64129;53.508;10.476;2024-03-02T04:33:06;40.10;;;20.33;;
75542;SDS011;64129;53.508;10.476;2024-03-02T04:35:46;39.67;;;19.00;;
75542;SDS011;64129;53.508;10.476;2024-03-02T04:38:21;38.42;;;19.23;;
75542;SDS011;64129;53.508;10.476;2024-03-02T04:40:55;41.28;;;20.77;;
75542;SDS011;64129;53.508;10.476;2024-03-02T04:43:30;39.72;;;21.48;;
75542;SDS011;64129;53.508;10.476;2024-03-02T04:46:05;41.85;;;21.17;;
75542;SDS011;64129;53.508;10.476;2024-03-02T04:48:50;38.53;;;21.30;;
75542;SDS011;64129;53.508;10.476;2024-03-02T04:51:29;33.63;;;18.98;;
75542;SDS011;64129;53.508;10.476;2024-03-02T04:53:59;41.53;;;21.77;;
75542;SDS011;64129;53.508;10.476;2024-03-02T04:56:26;39.53;;;20.33;;
75542;SDS011;64129;53.508;10.476;2024-03-02T04:59:32;38.58;;;21.15;;
75542;SDS011;64129;53.508;10.476;2024-03-02T05:02:02;38.25;;;21.27;;
75542;SDS011;64129;53.508;10.476;2024-03-02T05:04:29;37.35;;;19.27;;
75542;SDS011;64129;53.508;10.476;2024-03-02T05:07:01;41.70;;;21.33;;
75542;SDS011;64129;53.508;10.476;2024-03-02T05:09:35;35.13;;;20.20;;
75542;SDS011;64129;53.508;10.476;2024-03-02T05:12:18;44.53;;;22.27;;
75542;SDS011;64129;53.508;10.476;2024-03-02T05:15:11;40.50;;;20.77;;
75542;SDS011;64129;53.508;10.476;2024-03-02T05:17:59;40.50;;;21.98;;
75542;SDS011;64129;53.508;10.476;2024-03-02T05:20:32;42.20;;;21.35;;
75542;SDS011;64129;53.508;10.476;2024-03-02T05:23:15;44.28;;;21.33;;
75542;SDS011;64129;53.508;10.476;2024-03-02T05:25:42;40.35;;;19.83;;
75542;SDS011;64129;53.508;10.476;2024-03-02T05:28:13;37.45;;;21.70;;
75542;SDS011;64129;53.508;10.476;2024-03-02T05:30:42;37.03;;;20.85;;
75542;SDS011;64129;53.508;10.476;2024-03-02T05:33:16;39.05;;;22.00;;
75542;SDS011;64129;53.508;10.476;2024-03-02T05:35:49;42.97;;;20.42;;
75542;SDS011;64129;53.508;10.476;2024-03-02T05:38:28;45.85;;;22.67;;
75542;SDS011;64129;53.508;10.476;2024-03-02T05:41:02;42.92;;;23.42;;
75542;SDS011;64129;53.508;10.476;2024-03-02T05:43:34;40.63;;;20.90;;
75542;SDS011;64129;53.508;10.476;2024-03-02T05:46:04;40.58;;;21.77;;
75542;SDS011;64129;53.508;10.476;2024-03-02T05:48:38;44.22;;;23.02;;
75542;SDS011;64129;53.508;10.476;2024-03-02T05:51:23;39.42;;;20.45;;
75542;SDS011;64129;53.508;10.476;2024-03-02T05:53:53;38.50;;;21.92;;
75542;SDS011;64129;53.508;10.476;2024-03-02T05:56:37;37.78;;;19.20;;
75542;SDS011;64129;53.508;10.476;2024-03-02T05:59:04;41.83;;;21.38;;
75542;SDS011;64129;53.508;10.476;2024-03-02T06:01:56;40.38;;;21.17;;
75542;SDS011;64129;53.508;10.476;2024-03-02T06:04:26;45.08;;;21.52;;
75542;SDS011;64129;53.508;10.476;2024-03-02T06:07:07;43.30;;;20.73;;
75542;SDS011;64129;53.508;10.476;2024-03-02T06:09:37;42.35;;;20.63;;
75542;SDS011;64129;53.508;10.476;2024-03-02T06:12:21;44.33;;;22.25;;
75542;SDS011;64129;53.508;10.476;2024-03-02T06:14:48;41.78;;;22.02;;
75542;SDS011;64129;53.508;10.476;2024-03-02T06:17:17;41.70;;;21.67;;
75542;SDS011;64129;53.508;10.476;2024-03-02T06:19:50;45.35;;;23.48;;
75542;SDS011;64129;53.508;10.476;2024-03-02T06:22:23;43.42;;;23.63;;
75542;SDS011;64129;53.508;10.476;2024-03-02T06:25:01;43.25;;;23.90;;
75542;SDS011;64129;53.508;10.476;2024-03-02T06:27:45;40.78;;;21.27;;
75542;SDS011;64129;53.508;10.476;2024-03-02T06:30:12;39.55;;;21.85;;
75542;SDS011;64129;53.508;10.476;2024-03-02T06:32:42;42.20;;;21.48;;
75542;SDS011;64129;53.508;10.476;2024-03-02T06:35:19;39.97;;;22.20;;
75542;SDS011;64129;53.508;10.476;2024-03-02T06:37:58;42.83;;;21.80;;
75542;SDS011;64129;53.508;10.476;2024-03-02T06:40:29;44.35;;;23.10;;
75542;SDS011;64129;53.508;10.476;2024-03-02T06:43:02;41.25;;;20.83;;
75542;SDS011;64129;53.508;10.476;2024-03-02T06:45:33;45.13;;;22.98;;
75542;SDS011;64129;53.508;10.476;2024-03-02T06:48:15;40.13;;;21.15;;
75542;SDS011;64129;53.508;10.476;2024-03-02T06:50:55;41.72;;;21.55;;
75542;SDS011;64129;53.508;10.476;2024-03-02T06:53:32;40.67;;;22.40;;
75542;SDS011;64129;53.508;10.476;2024-03-02T06:56:07;40.38;;;21.42;;
75542;SDS011;64129;53.508;10.476;2024-03-02T06:58:42;43.42;;;23.40;;
75542;SDS011;64129;53.508;10.476;2024-03-02T07:01:13;43.85;;;22.58;;
75542;SDS011;64129;53.508;10.476;2024-03-02T07:03:39;45.80;;;23.75;;
75542;SDS011;64129;53.508;10.476;2024-03-02T07:06:10;44.53;;;21.95;;
75542;SDS011;64129;53.508;10.476;2024-03-02T07:08:40;41.30;;;22.02;;
75542;SDS011;64129;53.508;10.476;2024-03-02T07:11:14;41.67;;;20.92;;
75542;SDS011;64129;53.508;10.476;2024-03-02T07:13:44;42.40;;;22.17;;
75542;SDS011;64129;53.508;10.476;2024-03-02T07:16:22;45.75;;;21.58;;
75542;SDS011;64129;53.508;10.476;2024-03-02T07:19:06;40.40;;;22.67;;
75542;SDS011;64129;53.508;10.476;2024-03-02T07:21:37;37.50;;;21.42;;
75542;SDS011;64129;53.508;10.476;2024-03-02T07:24:14;41.13;;;22.65;;
75542;SDS011;64129;53.508;10.476;2024-03-02T07:26:43;44.05;;;20.92;;
75542;SDS011;64129;53.508;10.476;2024-03-02T07:29:19;39.00;;;20.00;;
75542;SDS011;64129;53.508;10.476;2024-03-02T07:35:02;39.63;;;19.50;;
75542;SDS011;64129;53.508;10.476;2024-03-02T07:37:33;44.40;;;20.98;;
75542;SDS011;64129;53.508;10.476;2024-03-02T07:40:03;43.53;;;22.48;;
75542;SDS011;64129;53.508;10.476;2024-03-02T07:42:33;42.15;;;22.42;;
75542;SDS011;64129;53.508;10.476;2024-03-02T07:45:03;39.58;;;21.50;;
75542;SDS011;64129;53.508;10.476;2024-03-02T07:48:02;38.45;;;21.73;;
75542;SDS011;64129;53.508;10.476;2024-03-02T07:50:32;36.45;;;20.00;;
75542;SDS011;64129;53.508;10.476;2024-03-02T07:53:14;43.40;;;22.83;;
75542;SDS011;64129;53.508;10.476;2024-03-02T07:55:41;36.33;;;20.92;;
75542;SDS011;64129;53.508;10.476;2024-03-02T07:58:17;34.45;;;19.13;;
75542;SDS011;64129;53.508;10.476;2024-03-02T08:00:52;39.10;;;21.52;;
75542;SDS011;64129;53.508;10.476;2024-03-02T08:03:20;38.38;;;21.23;;
75542;SDS011;64129;53.508;10.476;2024-03-02T08:05:47;40.00;;;19.98;;
75542;SDS011;64129;53.508;10.476;2024-03-02T08:08:14;34.45;;;18.80;;
75542;SDS011;64129;53.508;10.476;2024-03-02T08:10:50;35.75;;;20.15;;
75542;SDS011;64129;53.508;10.476;2024-03-02T08:13:30;35.80;;;20.08;;
75542;SDS011;64129;53.508;10.476;2024-03-02T08:16:01;36.60;;;20.50;;
75542;SDS011;64129;53.508;10.476;2024-03-02T08:18:33;35.33;;;20.00;;
75542;SDS011;64129;53.508;10.476;2024-03-02T08:21:03;39.10;;;20.88;;
75542;SDS011;64129;53.508;10.476;2024-03-02T08:23:37;34.50;;;19.77;;
75542;SDS011;64129;53.508;10.476;2024-03-02T08:26:13;31.67;;;19.17;;
75542;SDS011;64129;53.508;10.476;2024-03-02T08:28:40;35.75;;;20.55;;
75542;SDS011;64129;53.508;10.476;2024-03-02T08:31:10;34.90;;;20.25;;
75542;SDS011;64129;53.508;10.476;2024-03-02T08:33:37;30.67;;;17.55;;
75542;SDS011;64129;53.508;10.476;2024-03-02T08:36:17;32.95;;;19.58;;
75542;SDS011;64129;53.508;10.476;2024-03-02T08:38:44;34.70;;;17.13;;
75542;SDS011;64129;53.508;10.476;2024-03-02T08:41:15;36.33;;;19.60;;
75542;SDS011;64129;53.508;10.476;2024-03-02T08:43:45;39.70;;;21.25;;
75542;SDS011;64129;53.508;10.476;2024-03-02T08:46:25;35.20;;;18.95;;
75542;SDS011;64129;53.508;10.476;2024-03-02T08:48:55;36.90;;;20.42;;
75542;SDS011;64129;53.508;10.476;2024-03-02T08:51:25;31.33;;;17.92;;
75542;SDS011;64129;53.508;10.476;2024-03-02T08:53:58;39.72;;;21.35;;
75542;SDS011;64129;53.508;10.476;2024-03-02T08:56:25;31.75;;;16.98;;
75542;SDS011;64129;53.508;10.476;2024-03-02T08:58:58;32.92;;;18.23;;
75542;SDS011;64129;53.508;10.476;2024-03-02T09:01:28;33.20;;;17.75;;
75542;SDS011;64129;53.508;10.476;2024-03-02T09:04:17;28.98;;;16.80;;
75542;SDS011;64129;53.508;10.476;2024-03-02T09:06:48;34.80;;;18.63;;
75542;SDS011;64129;53.508;10.476;2024-03-02T09:09:15;32.30;;;19.00;;
75542;SDS011;64129;53.508;10.476;2024-03-02T09:11:41;30.63;;;16.85;;
75542;SDS011;64129;53.508;10.476;2024-03-02T09:14:17;29.63;;;16.10;;
75542;SDS011;64129;53.508;10.476;2024-03-02T09:16:47;33.47;;;18.50;;
75542;SDS011;64129;53.508;10.476;2024-03-02T09:19:14;27.75;;;17.20;;
75542;SDS011;64129;53.508;10.476;2024-03-02T09:21:41;29.75;;;17.40;;
75542;SDS011;64129;53.508;10.476;2024-03-02T09:24:17;31.88;;;18.05;;
75542;SDS011;64129;53.508;10.476;2024-03-02T09:26:48;26.95;;;16.75;;
75542;SDS011;64129;53.508;10.476;2024-03-02T09:29:21;25.25;;;14.65;;
75542;SDS011;64129;53.508;10.476;2024-03-02T09:31:54;24.35;;;13.48;;
75542;SDS011;64129;53.508;10.476;2024-03-02T09:34:28;25.42;;;15.55;;
75542;SDS011;64129;53.508;10.476;2024-03-02T09:37:04;27.38;;;16.95;;
75542;SDS011;64129;53.508;10.476;2024-03-02T09:39:38;25.25;;;17.08;;
75542;SDS011;64129;53.508;10.476;2024-03-02T09:42:08;28.02;;;16.75;;
75542;SDS011;64129;53.508;10.476;2024-03-02T09:44:35;25.63;;;17.10;;
75542;SDS011;64129;53.508;10.476;2024-03-02T09:47:15;28.13;;;15.73;;
75542;SDS011;64129;53.508;10.476;2024-03-02T09:49:47;26.63;;;16.55;;
75542;SDS011;64129;53.508;10.476;2024-03-02T09:52:25;28.10;;;17.20;;
75542;SDS011;64129;53.508;10.476;2024-03-02T09:54:59;26.08;;;15.55;;
75542;SDS011;64129;53.508;10.476;2024-03-02T09:57:26;23.77;;;15.23;;
75542;SDS011;64129;53.508;10.476;2024-03-02T09:59:58;24.20;;;15.85;;
75542;SDS011;64129;53.508;10.476;2024-03-02T10:02:28;23.88;;;15.65;;
75542;SDS011;64129;53.508;10.476;2024-03-02T10:04:57;26.30;;;16.95;;
75542;SDS011;64129;53.508;10.476;2024-03-02T10:07:27;26.48;;;15.35;;
75542;SDS011;64129;53.508;10.476;2024-03-02T10:10:12;22.63;;;14.00;;
75542;SDS011;64129;53.508;10.476;2024-03-02T10:12:55;21.60;;;14.05;;
75542;SDS011;64129;53.508;10.476;2024-03-02T10:15:44;23.35;;;14.43;;
75542;SDS011;64129;53.508;10.476;2024-03-02T10:18:11;21.08;;;12.77;;
75542;SDS011;64129;53.508;10.476;2024-03-02T10:20:45;22.30;;;13.45;;
75542;SDS011;64129;53.508;10.476;2024-03-02T10:23:16;20.90;;;12.38;;
75542;SDS011;64129;53.508;10.476;2024-03-02T10:25:46;20.02;;;13.27;;
75542;SDS011;64129;53.508;10.476;2024-03-02T10:28:16;22.25;;;13.93;;
75542;SDS011;64129;53.508;10.476;2024-03-02T10:30:43;19.10;;;12.95;;
75542;SDS011;64129;53.508;10.476;2024-03-02T10:33:24;19.08;;;13.02;;
75542;SDS011;64129;53.508;10.476;2024-03-02T10:35:51;20.30;;;12.82;;
75542;SDS011;64129;53.508;10.476;2024-03-02T10:38:47;20.15;;;12.70;;
75542;SDS011;64129;53.508;10.476;2024-03-02T10:41:24;20.90;;;11.57;;
75542;SDS011;64129;53.508;10.476;2024-03-02T10:43:53;19.00;;;11.75;;
75542;SDS011;64129;53.508;10.476;2024-03-02T10:49:07;18.92;;;12.40;;
75542;SDS011;64129;53.508;10.476;2024-03-02T10:51:41;18.77;;;10.38;;
75542;SDS011;64129;53.508;10.476;2024-03-02T10:54:16;20.02;;;13.73;;
75542;SDS011;64129;53.508;10.476;2024-03-02T10:56:52;19.55;;;11.90;;
75542;SDS011;64129;53.508;10.476;2024-03-02T10:59:32;18.73;;;12.68;;
75542;SDS011;64129;53.508;10.476;2024-03-02T11:02:12;17.88;;;13.02;;
75542;SDS011;64129;53.508;10.476;2024-03-02T11:04:44;18.73;;;12.25;;
75542;SDS011;64129;53.508;10.476;2024-03-02T11:07:26;17.92;;;12.57;;
75542;SDS011;64129;53.508;10.476;2024-03-02T11:09:59;19.38;;;12.43;;
75542;SDS011;64129;53.508;10.476;2024-03-02T11:15:34;21.00;;;13.38;;
75542;SDS011;64129;53.508;10.476;2024-03-02T11:18:10;19.05;;;12.32;;
75542;SDS011;64129;53.508;10.476;2024-03-02T11:20:38;17.98;;;12.43;;
75542;SDS011;64129;53.508;10.476;2024-03-02T11:23:20;16.58;;;10.93;;
75542;SDS011;64129;53.508;10.476;2024-03-02T11:28:56;20.02;;;11.48;;
75542;SDS011;64129;53.508;10.476;2024-03-02T11:34:41;16.70;;;10.55;;
75542;SDS011;64129;53.508;10.476;2024-03-02T11:37:16;16.25;;;10.88;;
75542;SDS011;64129;53.508;10.476;2024-03-02T11:39:54;14.98;;;9.90;;
75542;SDS011;64129;53.508;10.476;2024-03-02T11:42:22;15.25;;;9.63;;
75542;SDS011;64129;53.508;10.476;2024-03-02T11:44:50;12.73;;;9.63;;
75542;SDS011;64129;53.508;10.476;2024-03-02T11:47:31;15.82;;;9.93;;
75542;SDS011;64129;53.508;10.476;2024-03-02T11:50:03;13.05;;;9.95;;
75542;SDS011;64129;53.508;10.476;2024-03-02T11:52:38;14.30;;;10.32;;
75542;SDS011;64129;53.508;10.476;2024-03-02T11:55:08;13.18;;;8.23;;
75542;SDS011;64129;53.508;10.476;2024-03-02T11:57:48;9.95;;;7.95;;
75542;SDS011;64129;53.508;10.476;2024-03-02T12:00:25;10.77;;;7.80;;
75542;SDS011;64129;53.508;10.476;2024-03-02T12:03:02;11.20;;;8.57;;
75542;SDS011;64129;53.508;10.476;2024-03-02T12:05:43;12.48;;;9.07;;
75542;SDS011;64129;53.508;10.476;2024-03-02T12:08:16;12.50;;;8.63;;
75542;SDS011;64129;53.508;10.476;2024-03-02T12:10:43;12.45;;;8.88;;
75542;SDS011;64129;53.508;10.476;2024-03-02T12:13:30;12.90;;;9.60;;
75542;SDS011;64129;53.508;10.476;2024-03-02T12:16:04;13.23;;;9.13;;
75542;SDS011;64129;53.508;10.476;2024-03-02T12:18:36;12.98;;;8.90;;
75542;SDS011;64129;53.508;10.476;2024-03-02T12:21:09;13.85;;;8.95;;
75542;SDS011;64129;53.508;10.476;2024-03-02T12:23:41;13.10;;;9.27;;
75542;SDS011;64129;53.508;10.476;2024-03-02T12:26:13;10.18;;;8.45;;
75542;SDS011;64129;53.508;10.476;2024-03-02T12:28:44;13.52;;;9.32;;
75542;SDS011;64129;53.508;10.476;2024-03-02T12:31:14;12.95;;;8.98;;
75542;SDS011;64129;53.508;10.476;2024-03-02T12:33:46;12.40;;;8.48;;
75542;SDS011;64129;53.508;10.476;2024-03-02T12:36:27;11.70;;;8.50;;
75542;SDS011;64129;53.508;10.476;2024-03-02T12:38:54;10.55;;;7.70;;
75542;SDS011;64129;53.508;10.476;2024-03-02T12:41:38;12.80;;;8.77;;
75542;SDS011;64129;53.508;10.476;2024-03-02T12:44:05;12.48;;;8.68;;
75542;SDS011;64129;53.508;10.476;2024-03-02T12:46:36;12.63;;;9.70;;
75542;SDS011;64129;53.508;10.476;2024-03-02T12:49:13;12.25;;;8.88;;
75542;SDS011;64129;53.508;10.476;2024-03-02T12:51:51;13.10;;;8.52;;
75542;SDS011;64129;53.508;10.476;2024-03-02T12:54:25;12.27;;;9.18;;
75542;SDS011;64129;53.508;10.476;2024-03-02T12:56:58;11.25;;;8.07;;
75542;SDS011;64129;53.508;10.476;2024-03-02T12:59:29;12.77;;;8.32;;
75542;SDS011;64129;53.508;10.476;2024-03-02T13:01:56;12.27;;;9.10;;
75542;SDS011;64129;53.508;10.476;2024-03-02T13:04:28;14.75;;;9.02;;
75542;SDS011;64129;53.508;10.476;2024-03-02T13:06:58;13.27;;;9.85;;
75542;SDS011;64129;53.508;10.476;2024-03-02T13:09:29;12.30;;;9.18;;
75542;SDS011;64129;53.508;10.476;2024-03-02T13:11:59;11.98;;;9.30;;
75542;SDS011;64129;53.508;10.476;2024-03-02T13:14:33;12.90;;;9.60;;
75542;SDS011;64129;53.508;10.476;2024-03-02T13:17:02;13.57;;;9.05;;
75542;SDS011;64129;53.508;10.476;2024-03-02T13:19:31;11.82;;;8.60;;
75542;SDS011;64129;53.508;10.476;2024-03-02T13:21:58;11.50;;;8.75;;
75542;SDS011;64129;53.508;10.476;2024-03-02T13:24:30;11.55;;;8.07;;
75542;SDS011;64129;53.508;10.476;2024-03-02T13:27:13;12.68;;;8.80;;
75542;SDS011;64129;53.508;10.476;2024-03-02T13:29:45;12.20;;;7.70;;
75542;SDS011;64129;53.508;10.476;2024-03-02T13:32:18;10.02;;;7.15;;
75542;SDS011;64129;53.508;10.476;2024-03-02T13:34:56;10.20;;;7.15;;
75542;SDS011;64129;53.508;10.476;2024-03-02T13:37:23;13.15;;;7.32;;
75542;SDS011;64129;53.508;10.476;2024-03-02T13:39:59;10.60;;;7.65;;
75542;SDS011;64129;53.508;10.476;2024-03-02T13:42:30;9.77;;;7.00;;
75542;SDS011;64129;53.508;10.476;2024-03-02T13:45:01;11.68;;;7.40;;
75542;SDS011;64129;53.508;10.476;2024-03-02T13:47:31;10.80;;;7.72;;
75542;SDS011;64129;53.508;10.476;2024-03-02T13:49:58;10.77;;;7.18;;
75542;SDS011;64129;53.508;10.476;2024-03-02T13:52:24;12.63;;;8.68;;
75542;SDS011;64129;53.508;10.476;2024-03-02T13:55:01;13.05;;;7.20;;
75542;SDS011;64129;53.508;10.476;2024-03-02T13:57:35;12.13;;;7.82;;
75542;SDS011;64129;53.508;10.476;2024-03-02T14:00:05;10.45;;;7.72;;
75542;SDS011;64129;53.508;10.476;2024-03-02T14:02:43;12.05;;;9.35;;
75542;SDS011;64129;53.508;10.476;2024-03-02T14:05:13;14.07;;;8.05;;
75542;SDS011;64129;53.508;10.476;2024-03-02T14:07:57;10.98;;;7.85;;
75542;SDS011;64129;53.508;10.476;2024-03-02T14:10:28;11.73;;;7.95;;
75542;SDS011;64129;53.508;10.476;2024-03-02T14:13:07;11.60;;;7.97;;
75542;SDS011;64129;53.508;10.476;2024-03-02T14:15:41;13.15;;;8.38;;
75542;SDS011;64129;53.508;10.476;2024-03-02T14:18:08;11.23;;;7.88;;
75542;SDS011;64129;53.508;10.476;2024-03-02T14:20:41;11.48;;;7.60;;
75542;SDS011;64129;53.508;10.476;2024-03-02T14:23:10;14.23;;;8.38;;
75542;SDS011;64129;53.508;10.476;2024-03-02T14:25:45;14.07;;;9.00;;
75542;SDS011;64129;53.508;10.476;2024-03-02T14:28:21;13.10;;;8.63;;
75542;SDS011;64129;53.508;10.476;2024-03-02T14:30:52;13.38;;;8.70;;
75542;SDS011;64129;53.508;10.476;2024-03-02T14:33:35;12.20;;;8.52;;
75542;SDS011;64129;53.508;10.476;2024-03-02T14:36:07;10.63;;;7.97;;
75542;SDS011;64129;53.508;10.476;2024-03-02T14:38:38;11.30;;;8.70;;
75542;SDS011;64129;53.508;10.476;2024-03-02T14:41:08;12.65;;;8.07;;
75542;SDS011;64129;53.508;10.476;2024-03-02T14:43:36;12.35;;;9.00;;
75542;SDS011;64129;53.508;10.476;2024-03-02T14:46:05;12.05;;;8.73;;
75542;SDS011;64129;53.508;10.476;2024-03-02T14:48:38;11.30;;;8.32;;
75542;SDS011;64129;53.508;10.476;2024-03-02T14:51:07;12.60;;;8.25;;
75542;SDS011;64129;53.508;10.476;2024-03-02T14:53:35;12.70;;;7.75;;
75542;SDS011;64129;53.508;10.476;2024-03-02T14:56:08;10.02;;;7.45;;
75542;SDS011;64129;53.508;10.476;2024-03-02T14:58:35;11.95;;;8.05;;
75542;SDS011;64129;53.508;10.476;2024-03-02T15:01:10;12.88;;;8.45;;
75542;SDS011;64129;53.508;10.476;2024-03-02T15:03:41;9.52;;;8.30;;
75542;SDS011;64129;53.508;10.476;2024-03-02T15:06:16;11.73;;;7.88;;